sensor_id;sensor_type;location;lat;lon;timestamp;temperature;humidity
20590;DHT22;10453;50.810;12.540;2023-05-10T00:03:43;10.60;99.90
20590;DHT22;10453;50.810;12.540;2023-05-10T00:08:01;10.70;99.90
20590;DHT22;10453;50.810;12.540;2023-05-10T00:12:18;10.60;99.90
20590;DHT22;10453;50.810;12.540;2023-05-10T00:16:35;10.50;99.90
20590;DHT22;10453;50.810;12.540;2023-05-10T00:20:53;10.40;99.90
20590;DHT22;10453;50.810;12.540;2023-05-10T00:25:10;10.30;99.90
20590;DHT22;10453;50.810;12.540;2023-05-10T00:29:27;10.10;99.90
20590;DHT22;10453;50.810;12.540;2023-05-10T00:33:45;10.00;99.90
20590;DHT22;10453;50.810;12.540;2023-05-10T00:38:02;10.00;99.90
20590;DHT22;10453;50.810;12.540;2023-05-10T00:42:20;9.90;99.90
20590;DHT22;10453;50.810;12.540;2023-05-10T00:46:37;9.90;99.90
20590;DHT22;10453;50.810;12.540;2023-05-10T00:50:54;9.70;99.90
20590;DHT22;10453;50.810;12.540;2023-05-10T00:55:12;9.60;99.90
20590;DHT22;10453;50.810;12.540;2023-05-10T00:59:30;9.40;99.90
20590;DHT22;10453;50.810;12.540;2023-05-10T01:03:48;9.40;99.90
20590;DHT22;10453;50.810;12.540;2023-05-10T01:08:05;9.30;99.90
20590;DHT22;10453;50.810;12.540;2023-05-10T01:12:23;9.20;99.90
20590;DHT22;10453;50.810;12.540;2023-05-10T01:16:42;9.10;99.90
20590;DHT22;10453;50.810;12.540;2023-05-10T01:21:29;8.90;99.90
20590;DHT22;10453;50.810;12.540;2023-05-10T01:26:26;8.70;99.90
20590;DHT22;10453;50.810;12.540;2023-05-10T01:35:46;8.40;99.90
20590;DHT22;10453;50.810;12.540;2023-05-10T01:40:32;8.30;99.90
20590;DHT22;10453;50.810;12.540;2023-05-10T01:45:07;8.30;99.90
20590;DHT22;10453;50.810;12.540;2023-05-10T01:49:39;8.30;99.90
20590;DHT22;10453;50.810;12.540;2023-05-10T01:54:00;8.20;99.90
20590;DHT22;10453;50.810;12.540;2023-05-10T01:58:25;8.40;99.90
20590;DHT22;10453;50.810;12.540;2023-05-10T02:02:48;8.40;99.90
20590;DHT22;10453;50.810;12.540;2023-05-10T02:07:07;8.60;99.90
20590;DHT22;10453;50.810;12.540;2023-05-10T02:11:27;8.90;99.90
20590;DHT22;10453;50.810;12.540;2023-05-10T02:15:48;9.30;99.90
20590;DHT22;10453;50.810;12.540;2023-05-10T02:20:06;9.50;99.90
20590;DHT22;10453;50.810;12.540;2023-05-10T02:24:25;9.50;99.90
20590;DHT22;10453;50.810;12.540;2023-05-10T02:28:43;9.40;99.90
20590;DHT22;10453;50.810;12.540;2023-05-10T02:33:04;9.40;99.90
20590;DHT22;10453;50.810;12.540;2023-05-10T02:37:21;9.30;99.90
20590;DHT22;10453;50.810;12.540;2023-05-10T02:41:40;9.30;99.90
20590;DHT22;10453;50.810;12.540;2023-05-10T02:45:59;9.30;99.90
20590;DHT22;10453;50.810;12.540;2023-05-10T02:50:17;9.40;99.90
20590;DHT22;10453;50.810;12.540;2023-05-10T02:54:41;9.50;99.90
20590;DHT22;10453;50.810;12.540;2023-05-10T02:59:00;9.50;99.90
20590;DHT22;10453;50.810;12.540;2023-05-10T03:03:18;9.50;99.90
20590;DHT22;10453;50.810;12.540;2023-05-10T03:07:37;9.60;99.90
20590;DHT22;10453;50.810;12.540;2023-05-10T03:16:41;9.40;99.90
20590;DHT22;10453;50.810;12.540;2023-05-10T03:21:04;9.30;99.90
20590;DHT22;10453;50.810;12.540;2023-05-10T03:25:24;9.30;99.90
20590;DHT22;10453;50.810;12.540;2023-05-10T03:29:42;9.10;99.90
20590;DHT22;10453;50.810;12.540;2023-05-10T03:34:00;9.00;99.90
20590;DHT22;10453;50.810;12.540;2023-05-10T03:38:18;9.20;99.90
20590;DHT22;10453;50.810;12.540;2023-05-10T03:42:35;9.30;99.90
20590;DHT22;10453;50.810;12.540;2023-05-10T03:46:53;9.50;99.90
20590;DHT22;10453;50.810;12.540;2023-05-10T03:51:10;9.70;99.90
20590;DHT22;10453;50.810;12.540;2023-05-10T03:55:27;9.90;99.90
20590;DHT22;10453;50.810;12.540;2023-05-10T03:59:45;10.00;99.90
20590;DHT22;10453;50.810;12.540;2023-05-10T04:04:03;10.00;99.90
20590;DHT22;10453;50.810;12.540;2023-05-10T04:08:20;10.00;99.90
20590;DHT22;10453;50.810;12.540;2023-05-10T04:12:37;10.00;99.90
20590;DHT22;10453;50.810;12.540;2023-05-10T04:16:55;10.10;99.90
20590;DHT22;10453;50.810;12.540;2023-05-10T04:21:13;10.20;99.90
20590;DHT22;10453;50.810;12.540;2023-05-10T04:25:30;10.30;99.90
20590;DHT22;10453;50.810;12.540;2023-05-10T04:29:50;10.30;99.90
20590;DHT22;10453;50.810;12.540;2023-05-10T04:34:08;10.40;99.90
20590;DHT22;10453;50.810;12.540;2023-05-10T04:38:25;10.50;99.90
20590;DHT22;10453;50.810;12.540;2023-05-10T04:42:44;10.70;99.90
20590;DHT22;10453;50.810;12.540;2023-05-10T04:47:01;10.70;99.90
20590;DHT22;10453;50.810;12.540;2023-05-10T04:51:19;10.90;99.90
20590;DHT22;10453;50.810;12.540;2023-05-10T04:55:37;11.20;99.90
20590;DHT22;10453;50.810;12.540;2023-05-10T04:59:55;11.40;99.90
20590;DHT22;10453;50.810;12.540;2023-05-10T05:04:12;11.50;99.90
20590;DHT22;10453;50.810;12.540;2023-05-10T05:08:30;11.70;99.90
20590;DHT22;10453;50.810;12.540;2023-05-10T05:12:47;11.90;99.90
20590;DHT22;10453;50.810;12.540;2023-05-10T05:17:04;12.10;99.90
20590;DHT22;10453;50.810;12.540;2023-05-10T05:21:21;12.30;99.90
20590;DHT22;10453;50.810;12.540;2023-05-10T05:25:39;12.50;99.90
20590;DHT22;10453;50.810;12.540;2023-05-10T05:29:56;12.60;99.90
20590;DHT22;10453;50.810;12.540;2023-05-10T05:34:14;12.70;99.90
20590;DHT22;10453;50.810;12.540;2023-05-10T05:38:31;12.80;99.90
20590;DHT22;10453;50.810;12.540;2023-05-10T05:42:49;13.00;99.90
20590;DHT22;10453;50.810;12.540;2023-05-10T05:47:06;13.10;99.90
20590;DHT22;10453;50.810;12.540;2023-05-10T05:51:24;13.20;99.90
20590;DHT22;10453;50.810;12.540;2023-05-10T05:55:51;13.30;99.90
20590;DHT22;10453;50.810;12.540;2023-05-10T06:00:09;13.40;99.90
20590;DHT22;10453;50.810;12.540;2023-05-10T06:04:27;13.30;99.90
20590;DHT22;10453;50.810;12.540;2023-05-10T06:08:44;13.20;99.90
20590;DHT22;10453;50.810;12.540;2023-05-10T06:13:02;13.30;99.90
20590;DHT22;10453;50.810;12.540;2023-05-10T06:17:21;13.40;99.90
20590;DHT22;10453;50.810;12.540;2023-05-10T06:21:38;13.40;99.90
20590;DHT22;10453;50.810;12.540;2023-05-10T06:25:56;13.60;99.90
20590;DHT22;10453;50.810;12.540;2023-05-10T06:30:13;13.80;99.90
20590;DHT22;10453;50.810;12.540;2023-05-10T06:34:32;13.90;99.90
20590;DHT22;10453;50.810;12.540;2023-05-10T06:38:50;14.00;99.90
20590;DHT22;10453;50.810;12.540;2023-05-10T06:43:09;14.20;99.90
20590;DHT22;10453;50.810;12.540;2023-05-10T06:47:27;14.10;99.90
20590;DHT22;10453;50.810;12.540;2023-05-10T06:51:45;14.40;99.90
20590;DHT22;10453;50.810;12.540;2023-05-10T06:56:03;14.30;99.90
20590;DHT22;10453;50.810;12.540;2023-05-10T07:00:21;14.20;99.90
20590;DHT22;10453;50.810;12.540;2023-05-10T07:04:38;14.30;99.90
20590;DHT22;10453;50.810;12.540;2023-05-10T07:08:55;14.30;99.90
20590;DHT22;10453;50.810;12.540;2023-05-10T07:13:12;14.20;99.90
20590;DHT22;10453;50.810;12.540;2023-05-10T07:17:30;14.00;99.90
20590;DHT22;10453;50.810;12.540;2023-05-10T07:21:48;13.80;99.90
20590;DHT22;10453;50.810;12.540;2023-05-10T07:26:05;13.50;99.90
20590;DHT22;10453;50.810;12.540;2023-05-10T07:30:22;13.50;99.90
20590;DHT22;10453;50.810;12.540;2023-05-10T07:34:40;13.70;99.90
20590;DHT22;10453;50.810;12.540;2023-05-10T07:38:57;13.70;99.90
20590;DHT22;10453;50.810;12.540;2023-05-10T07:43:14;13.70;99.90
20590;DHT22;10453;50.810;12.540;2023-05-10T07:47:32;13.80;99.90
20590;DHT22;10453;50.810;12.540;2023-05-10T07:51:49;13.50;99.90
20590;DHT22;10453;50.810;12.540;2023-05-10T07:56:28;13.10;99.90
20590;DHT22;10453;50.810;12.540;2023-05-10T08:00:48;12.80;99.90
20590;DHT22;10453;50.810;12.540;2023-05-10T08:05:06;12.60;99.90
20590;DHT22;10453;50.810;12.540;2023-05-10T08:09:24;12.40;99.90
20590;DHT22;10453;50.810;12.540;2023-05-10T08:13:41;12.20;99.90
20590;DHT22;10453;50.810;12.540;2023-05-10T08:17:58;12.20;99.90
20590;DHT22;10453;50.810;12.540;2023-05-10T08:22:16;12.20;99.90
20590;DHT22;10453;50.810;12.540;2023-05-10T08:26:33;12.20;99.90
20590;DHT22;10453;50.810;12.540;2023-05-10T08:30:51;12.30;99.90
20590;DHT22;10453;50.810;12.540;2023-05-10T08:35:08;12.20;99.90
20590;DHT22;10453;50.810;12.540;2023-05-10T08:39:25;12.00;99.90
20590;DHT22;10453;50.810;12.540;2023-05-10T08:43:47;12.10;99.90
20590;DHT22;10453;50.810;12.540;2023-05-10T08:48:08;12.20;99.90
20590;DHT22;10453;50.810;12.540;2023-05-10T08:52:26;12.40;99.90
20590;DHT22;10453;50.810;12.540;2023-05-10T08:56:45;12.40;99.90
20590;DHT22;10453;50.810;12.540;2023-05-10T09:01:05;12.80;99.90
20590;DHT22;10453;50.810;12.540;2023-05-10T09:05:23;12.90;99.90
20590;DHT22;10453;50.810;12.540;2023-05-10T09:09:40;13.00;99.90
20590;DHT22;10453;50.810;12.540;2023-05-10T09:13:58;13.30;99.90
20590;DHT22;10453;50.810;12.540;2023-05-10T09:18:16;13.30;99.90
20590;DHT22;10453;50.810;12.540;2023-05-10T09:22:34;13.40;99.90
20590;DHT22;10453;50.810;12.540;2023-05-10T09:26:52;13.60;99.90
20590;DHT22;10453;50.810;12.540;2023-05-10T09:31:09;13.80;99.90
20590;DHT22;10453;50.810;12.540;2023-05-10T09:35:29;13.80;99.90
20590;DHT22;10453;50.810;12.540;2023-05-10T09:39:46;13.80;99.90
20590;DHT22;10453;50.810;12.540;2023-05-10T09:44:03;13.80;99.90
20590;DHT22;10453;50.810;12.540;2023-05-10T09:48:23;13.80;99.90
20590;DHT22;10453;50.810;12.540;2023-05-10T09:52:57;13.80;99.90
20590;DHT22;10453;50.810;12.540;2023-05-10T09:57:20;14.00;99.90
20590;DHT22;10453;50.810;12.540;2023-05-10T10:01:39;14.00;99.90
20590;DHT22;10453;50.810;12.540;2023-05-10T10:05:57;14.10;99.90
20590;DHT22;10453;50.810;12.540;2023-05-10T10:10:14;14.20;99.90
20590;DHT22;10453;50.810;12.540;2023-05-10T10:14:33;14.30;99.90
20590;DHT22;10453;50.810;12.540;2023-05-10T10:18:51;14.30;99.90
20590;DHT22;10453;50.810;12.540;2023-05-10T10:23:08;14.20;99.90
20590;DHT22;10453;50.810;12.540;2023-05-10T10:32:11;14.20;99.90
20590;DHT22;10453;50.810;12.540;2023-05-10T10:36:46;14.10;99.90
20590;DHT22;10453;50.810;12.540;2023-05-10T10:41:11;14.00;99.90
20590;DHT22;10453;50.810;12.540;2023-05-10T10:45:47;14.20;99.90
20590;DHT22;10453;50.810;12.540;2023-05-10T10:50:06;14.50;99.90
20590;DHT22;10453;50.810;12.540;2023-05-10T10:54:28;14.70;99.90
20590;DHT22;10453;50.810;12.540;2023-05-10T10:58:49;14.50;99.90
20590;DHT22;10453;50.810;12.540;2023-05-10T11:03:15;14.60;99.90
20590;DHT22;10453;50.810;12.540;2023-05-10T11:07:36;14.80;99.90
20590;DHT22;10453;50.810;12.540;2023-05-10T11:12:08;15.00;99.90
20590;DHT22;10453;50.810;12.540;2023-05-10T11:16:26;15.00;99.90
20590;DHT22;10453;50.810;12.540;2023-05-10T11:25:17;14.70;99.90
20590;DHT22;10453;50.810;12.540;2023-05-10T11:29:34;15.00;99.90
20590;DHT22;10453;50.810;12.540;2023-05-10T11:33:56;15.00;99.90
20590;DHT22;10453;50.810;12.540;2023-05-10T11:38:14;15.00;99.90
20590;DHT22;10453;50.810;12.540;2023-05-10T11:42:32;14.80;99.90
20590;DHT22;10453;50.810;12.540;2023-05-10T11:46:50;14.80;99.90
20590;DHT22;10453;50.810;12.540;2023-05-10T11:51:10;15.00;99.90
20590;DHT22;10453;50.810;12.540;2023-05-10T11:55:28;15.10;99.90
20590;DHT22;10453;50.810;12.540;2023-05-10T11:59:47;15.00;99.90
20590;DHT22;10453;50.810;12.540;2023-05-10T12:04:05;15.00;99.90
20590;DHT22;10453;50.810;12.540;2023-05-10T12:08:27;15.00;99.90
20590;DHT22;10453;50.810;12.540;2023-05-10T12:12:46;14.90;99.90
20590;DHT22;10453;50.810;12.540;2023-05-10T12:17:11;14.90;99.90
20590;DHT22;10453;50.810;12.540;2023-05-10T12:21:29;15.00;99.90
20590;DHT22;10453;50.810;12.540;2023-05-10T12:25:47;14.90;99.90
20590;DHT22;10453;50.810;12.540;2023-05-10T12:30:05;15.00;99.90
20590;DHT22;10453;50.810;12.540;2023-05-10T12:34:35;15.10;99.90
20590;DHT22;10453;50.810;12.540;2023-05-10T12:39:02;15.40;99.90
20590;DHT22;10453;50.810;12.540;2023-05-10T12:43:20;15.30;99.90
20590;DHT22;10453;50.810;12.540;2023-05-10T12:47:37;15.40;99.90
20590;DHT22;10453;50.810;12.540;2023-05-10T12:51:58;15.50;99.90
20590;DHT22;10453;50.810;12.540;2023-05-10T12:56:15;15.50;99.90
20590;DHT22;10453;50.810;12.540;2023-05-10T13:00:33;15.60;99.90
20590;DHT22;10453;50.810;12.540;2023-05-10T13:04:50;15.50;99.90
20590;DHT22;10453;50.810;12.540;2023-05-10T13:09:07;15.60;99.90
20590;DHT22;10453;50.810;12.540;2023-05-10T13:13:25;15.50;99.90
20590;DHT22;10453;50.810;12.540;2023-05-10T13:17:42;15.70;99.90
20590;DHT22;10453;50.810;12.540;2023-05-10T13:22:00;15.70;99.90
20590;DHT22;10453;50.810;12.540;2023-05-10T13:26:17;15.70;99.90
20590;DHT22;10453;50.810;12.540;2023-05-10T13:30:34;15.50;99.90
20590;DHT22;10453;50.810;12.540;2023-05-10T13:34:52;15.50;99.90
20590;DHT22;10453;50.810;12.540;2023-05-10T13:39:09;15.30;99.90
20590;DHT22;10453;50.810;12.540;2023-05-10T13:43:27;15.60;99.90
20590;DHT22;10453;50.810;12.540;2023-05-10T13:47:45;15.40;99.90
20590;DHT22;10453;50.810;12.540;2023-05-10T13:52:03;15.40;99.90
20590;DHT22;10453;50.810;12.540;2023-05-10T13:56:24;15.30;99.90
20590;DHT22;10453;50.810;12.540;2023-05-10T14:00:41;15.50;99.90
20590;DHT22;10453;50.810;12.540;2023-05-10T14:04:58;15.40;99.90
20590;DHT22;10453;50.810;12.540;2023-05-10T14:09:16;15.80;99.90
20590;DHT22;10453;50.810;12.540;2023-05-10T14:13:33;15.60;99.90
20590;DHT22;10453;50.810;12.540;2023-05-10T14:17:51;15.40;99.90
20590;DHT22;10453;50.810;12.540;2023-05-10T14:22:09;15.20;99.90
20590;DHT22;10453;50.810;12.540;2023-05-10T14:26:26;15.10;99.90
20590;DHT22;10453;50.810;12.540;2023-05-10T14:30:44;15.10;99.90
20590;DHT22;10453;50.810;12.540;2023-05-10T14:35:02;15.50;99.90
20590;DHT22;10453;50.810;12.540;2023-05-10T14:39:20;15.20;99.90
20590;DHT22;10453;50.810;12.540;2023-05-10T14:43:37;15.50;99.90
20590;DHT22;10453;50.810;12.540;2023-05-10T14:47:54;15.40;99.90
20590;DHT22;10453;50.810;12.540;2023-05-10T14:52:12;15.60;99.90
20590;DHT22;10453;50.810;12.540;2023-05-10T14:56:29;15.50;99.90
20590;DHT22;10453;50.810;12.540;2023-05-10T15:00:46;15.40;99.90
20590;DHT22;10453;50.810;12.540;2023-05-10T15:05:04;15.50;99.90
20590;DHT22;10453;50.810;12.540;2023-05-10T15:09:22;15.70;99.90
20590;DHT22;10453;50.810;12.540;2023-05-10T15:13:39;15.60;99.90
20590;DHT22;10453;50.810;12.540;2023-05-10T15:17:56;15.20;99.90
20590;DHT22;10453;50.810;12.540;2023-05-10T15:22:14;15.20;99.90
20590;DHT22;10453;50.810;12.540;2023-05-10T15:26:31;15.50;99.90
20590;DHT22;10453;50.810;12.540;2023-05-10T15:30:49;15.40;99.90
20590;DHT22;10453;50.810;12.540;2023-05-10T15:35:08;15.40;99.90
20590;DHT22;10453;50.810;12.540;2023-05-10T15:39:27;15.10;99.90
20590;DHT22;10453;50.810;12.540;2023-05-10T15:43:44;15.00;99.90
20590;DHT22;10453;50.810;12.540;2023-05-10T15:48:02;15.10;99.90
20590;DHT22;10453;50.810;12.540;2023-05-10T15:52:20;15.10;99.90
20590;DHT22;10453;50.810;12.540;2023-05-10T15:56:38;15.10;99.90
20590;DHT22;10453;50.810;12.540;2023-05-10T16:00:55;15.20;99.90
20590;DHT22;10453;50.810;12.540;2023-05-10T16:05:14;15.30;99.90
20590;DHT22;10453;50.810;12.540;2023-05-10T16:09:32;15.30;99.90
20590;DHT22;10453;50.810;12.540;2023-05-10T16:13:50;15.20;99.90
20590;DHT22;10453;50.810;12.540;2023-05-10T16:18:09;15.30;99.90
20590;DHT22;10453;50.810;12.540;2023-05-10T16:22:27;15.50;99.90
20590;DHT22;10453;50.810;12.540;2023-05-10T16:26:45;15.40;99.90
20590;DHT22;10453;50.810;12.540;2023-05-10T16:31:03;15.20;99.90
20590;DHT22;10453;50.810;12.540;2023-05-10T16:35:21;15.00;99.90
20590;DHT22;10453;50.810;12.540;2023-05-10T16:39:40;14.90;99.90
20590;DHT22;10453;50.810;12.540;2023-05-10T16:43:58;14.70;99.90
20590;DHT22;10453;50.810;12.540;2023-05-10T16:48:15;14.90;99.90
20590;DHT22;10453;50.810;12.540;2023-05-10T16:52:34;15.00;99.90
20590;DHT22;10453;50.810;12.540;2023-05-10T16:56:51;15.10;99.90
20590;DHT22;10453;50.810;12.540;2023-05-10T17:01:09;15.00;99.90
20590;DHT22;10453;50.810;12.540;2023-05-10T17:05:26;15.10;99.90
20590;DHT22;10453;50.810;12.540;2023-05-10T17:09:45;15.00;99.90
20590;DHT22;10453;50.810;12.540;2023-05-10T17:14:03;14.80;99.90
20590;DHT22;10453;50.810;12.540;2023-05-10T17:18:21;14.70;99.90
20590;DHT22;10453;50.810;12.540;2023-05-10T17:22:39;14.70;99.90
20590;DHT22;10453;50.810;12.540;2023-05-10T17:26:56;14.50;99.90
20590;DHT22;10453;50.810;12.540;2023-05-10T17:31:15;14.50;99.90
20590;DHT22;10453;50.810;12.540;2023-05-10T17:35:33;14.50;99.90
20590;DHT22;10453;50.810;12.540;2023-05-10T17:39:52;14.40;99.90
20590;DHT22;10453;50.810;12.540;2023-05-10T17:44:10;14.20;99.90
20590;DHT22;10453;50.810;12.540;2023-05-10T17:48:30;14.30;99.90
20590;DHT22;10453;50.810;12.540;2023-05-10T17:52:48;14.20;99.90
20590;DHT22;10453;50.810;12.540;2023-05-10T17:57:05;14.10;99.90
20590;DHT22;10453;50.810;12.540;2023-05-10T18:01:25;14.10;99.90
20590;DHT22;10453;50.810;12.540;2023-05-10T18:05:43;14.10;99.90
20590;DHT22;10453;50.810;12.540;2023-05-10T18:10:02;14.10;99.90
20590;DHT22;10453;50.810;12.540;2023-05-10T18:14:20;14.00;99.90
20590;DHT22;10453;50.810;12.540;2023-05-10T18:18:56;14.10;99.90
20590;DHT22;10453;50.810;12.540;2023-05-10T18:23:14;14.10;99.90
20590;DHT22;10453;50.810;12.540;2023-05-10T18:27:33;14.00;99.90
20590;DHT22;10453;50.810;12.540;2023-05-10T18:31:51;14.00;99.90
20590;DHT22;10453;50.810;12.540;2023-05-10T18:36:08;13.80;99.90
20590;DHT22;10453;50.810;12.540;2023-05-10T18:40:26;13.70;99.90
20590;DHT22;10453;50.810;12.540;2023-05-10T18:44:45;13.70;99.90
20590;DHT22;10453;50.810;12.540;2023-05-10T18:49:06;13.70;99.90
20590;DHT22;10453;50.810;12.540;2023-05-10T18:53:25;13.70;99.90
20590;DHT22;10453;50.810;12.540;2023-05-10T18:57:44;13.70;99.90
20590;DHT22;10453;50.810;12.540;2023-05-10T19:02:02;13.70;99.90
20590;DHT22;10453;50.810;12.540;2023-05-10T19:06:19;13.60;99.90
20590;DHT22;10453;50.810;12.540;2023-05-10T19:10:37;13.50;99.90
20590;DHT22;10453;50.810;12.540;2023-05-10T19:14:55;13.50;99.90
20590;DHT22;10453;50.810;12.540;2023-05-10T19:19:12;13.40;99.90
20590;DHT22;10453;50.810;12.540;2023-05-10T19:23:31;13.30;99.90
20590;DHT22;10453;50.810;12.540;2023-05-10T19:27:49;13.30;99.90
20590;DHT22;10453;50.810;12.540;2023-05-10T19:32:09;13.30;99.90
20590;DHT22;10453;50.810;12.540;2023-05-10T19:36:27;13.20;99.90
20590;DHT22;10453;50.810;12.540;2023-05-10T19:40:47;13.20;99.90
20590;DHT22;10453;50.810;12.540;2023-05-10T19:45:07;13.20;99.90
20590;DHT22;10453;50.810;12.540;2023-05-10T19:49:25;13.30;99.90
20590;DHT22;10453;50.810;12.540;2023-05-10T19:53:42;13.30;99.90
20590;DHT22;10453;50.810;12.540;2023-05-10T19:58:02;13.20;99.90
20590;DHT22;10453;50.810;12.540;2023-05-10T20:02:20;13.20;99.90
20590;DHT22;10453;50.810;12.540;2023-05-10T20:06:37;13.10;99.90
20590;DHT22;10453;50.810;12.540;2023-05-10T20:10:55;13.10;99.90
20590;DHT22;10453;50.810;12.540;2023-05-10T20:15:16;13.00;99.90
20590;DHT22;10453;50.810;12.540;2023-05-10T20:19:35;13.20;99.90
20590;DHT22;10453;50.810;12.540;2023-05-10T20:23:53;13.20;99.90
20590;DHT22;10453;50.810;12.540;2023-05-10T20:28:11;13.30;99.90
20590;DHT22;10453;50.810;12.540;2023-05-10T20:32:30;13.20;99.90
20590;DHT22;10453;50.810;12.540;2023-05-10T20:36:47;13.10;99.90
20590;DHT22;10453;50.810;12.540;2023-05-10T20:41:05;13.00;99.90
20590;DHT22;10453;50.810;12.540;2023-05-10T20:45:23;13.00;99.90
20590;DHT22;10453;50.810;12.540;2023-05-10T20:49:41;12.90;99.90
20590;DHT22;10453;50.810;12.540;2023-05-10T20:53:59;12.90;99.90
20590;DHT22;10453;50.810;12.540;2023-05-10T20:58:18;12.90;99.90
20590;DHT22;10453;50.810;12.540;2023-05-10T21:02:36;12.90;99.90
20590;DHT22;10453;50.810;12.540;2023-05-10T21:06:53;12.90;99.90
20590;DHT22;10453;50.810;12.540;2023-05-10T21:11:12;13.00;99.90
20590;DHT22;10453;50.810;12.540;2023-05-10T21:15:30;13.00;99.90
20590;DHT22;10453;50.810;12.540;2023-05-10T21:19:47;13.00;99.90
20590;DHT22;10453;50.810;12.540;2023-05-10T21:24:05;13.00;99.90
20590;DHT22;10453;50.810;12.540;2023-05-10T21:28:22;13.10;99.90
20590;DHT22;10453;50.810;12.540;2023-05-10T21:32:40;13.00;99.90
20590;DHT22;10453;50.810;12.540;2023-05-10T21:36:58;13.00;99.90
20590;DHT22;10453;50.810;12.540;2023-05-10T21:41:16;12.90;99.90
20590;DHT22;10453;50.810;12.540;2023-05-10T21:45:33;12.80;99.90
20590;DHT22;10453;50.810;12.540;2023-05-10T21:49:52;12.80;99.90
20590;DHT22;10453;50.810;12.540;2023-05-10T21:54:09;12.90;99.90
20590;DHT22;10453;50.810;12.540;2023-05-10T21:58:27;13.00;99.90
20590;DHT22;10453;50.810;12.540;2023-05-10T22:02:44;13.00;99.90
20590;DHT22;10453;50.810;12.540;2023-05-10T22:07:02;13.00;99.90
20590;DHT22;10453;50.810;12.540;2023-05-10T22:11:20;13.10;99.90
20590;DHT22;10453;50.810;12.540;2023-05-10T22:15:37;13.20;99.90
20590;DHT22;10453;50.810;12.540;2023-05-10T22:19:55;13.20;99.90
20590;DHT22;10453;50.810;12.540;2023-05-10T22:24:12;13.20;99.90
20590;DHT22;10453;50.810;12.540;2023-05-10T22:28:29;13.10;99.90
20590;DHT22;10453;50.810;12.540;2023-05-10T22:32:47;13.10;99.90
20590;DHT22;10453;50.810;12.540;2023-05-10T22:37:04;13.00;99.90
20590;DHT22;10453;50.810;12.540;2023-05-10T22:41:22;13.10;99.90
20590;DHT22;10453;50.810;12.540;2023-05-10T22:45:39;13.00;99.90
20590;DHT22;10453;50.810;12.540;2023-05-10T22:49:56;13.00;99.90
20590;DHT22;10453;50.810;12.540;2023-05-10T22:54:14;13.00;99.90
20590;DHT22;10453;50.810;12.540;2023-05-10T22:58:31;13.00;99.90
20590;DHT22;10453;50.810;12.540;2023-05-10T23:02:50;13.10;99.90
20590;DHT22;10453;50.810;12.540;2023-05-10T23:07:07;13.00;99.90
20590;DHT22;10453;50.810;12.540;2023-05-10T23:11:24;13.00;99.90
20590;DHT22;10453;50.810;12.540;2023-05-10T23:15:42;13.00;99.90
20590;DHT22;10453;50.810;12.540;2023-05-10T23:19:59;13.10;99.90
20590;DHT22;10453;50.810;12.540;2023-05-10T23:24:17;13.00;99.90
20590;DHT22;10453;50.810;12.540;2023-05-10T23:28:34;13.00;99.90
20590;DHT22;10453;50.810;12.540;2023-05-10T23:32:51;12.90;99.90
20590;DHT22;10453;50.810;12.540;2023-05-10T23:37:08;13.10;99.90
20590;DHT22;10453;50.810;12.540;2023-05-10T23:41:26;13.10;99.90
20590;DHT22;10453;50.810;12.540;2023-05-10T23:45:54;13.10;99.90
20590;DHT22;10453;50.810;12.540;2023-05-10T23:50:12;13.10;99.90
20590;DHT22;10453;50.810;12.540;2023-05-10T23:54:29;13.10;99.90
20590;DHT22;10453;50.810;12.540;2023-05-10T23:58:46;13.10;99.90
